sensor_id;sensor_type;location;lat;lon;timestamp;pressure;altitude;pressure_sealevel;temperature;humidity
46199;BME280;31928;52.104;10.030;2022-09-09T00:04:33;99888.06;;;21.60;52.17
46199;BME280;31928;52.104;10.030;2022-09-09T00:07:22;99898.94;;;21.78;52.07
46199;BME280;31928;52.104;10.030;2022-09-09T00:21:07;99897.53;;;21.80;51.56
46199;BME280;31928;52.104;10.030;2022-09-09T00:23:39;99899.16;;;21.81;51.68
46199;BME280;31928;52.104;10.030;2022-09-09T00:26:16;99898.50;;;21.89;51.55
46199;BME280;31928;52.104;10.030;2022-09-09T00:28:58;99895.97;;;21.93;51.25
46199;BME280;31928;52.104;10.030;2022-09-09T00:31:29;99895.53;;;21.86;51.09
46199;BME280;31928;52.104;10.030;2022-09-09T00:34:18;99893.38;;;22.01;51.22
46199;BME280;31928;52.104;10.030;2022-09-09T00:36:49;99896.56;;;21.90;50.90
46199;BME280;31928;52.104;10.030;2022-09-09T00:45:18;99883.47;;;22.05;51.15
46199;BME280;31928;52.104;10.030;2022-09-09T00:47:50;99883.66;;;21.95;50.68
46199;BME280;31928;52.104;10.030;2022-09-09T00:56:12;99887.50;;;21.94;50.69
46199;BME280;31928;52.104;10.030;2022-09-09T00:58:49;99894.34;;;21.92;50.85
46199;BME280;31928;52.104;10.030;2022-09-09T01:01:20;99886.03;;;21.83;51.00
46199;BME280;31928;52.104;10.030;2022-09-09T01:03:55;99894.94;;;21.89;50.91
46199;BME280;31928;52.104;10.030;2022-09-09T01:06:36;99894.34;;;21.92;51.17
46199;BME280;31928;52.104;10.030;2022-09-09T01:14:38;99892.00;;;21.85;50.84
46199;BME280;31928;52.104;10.030;2022-09-09T01:27:48;99892.09;;;21.80;51.28
46199;BME280;31928;52.104;10.030;2022-09-09T01:30:17;99886.41;;;21.77;51.07
46199;BME280;31928;52.104;10.030;2022-09-09T01:32:54;99890.69;;;21.83;51.46
46199;BME280;31928;52.104;10.030;2022-09-09T01:37:57;99891.63;;;21.73;51.36
46199;BME280;31928;52.104;10.030;2022-09-09T01:40:25;99887.81;;;21.74;51.43
46199;BME280;31928;52.104;10.030;2022-09-09T01:42:53;99890.03;;;21.73;51.41
46199;BME280;31928;52.104;10.030;2022-09-09T01:45:19;99891.63;;;21.73;51.11
46199;BME280;31928;52.104;10.030;2022-09-09T01:47:48;99888.41;;;21.72;51.19
46199;BME280;31928;52.104;10.030;2022-09-09T01:50:15;99887.59;;;21.71;51.36
46199;BME280;31928;52.104;10.030;2022-09-09T01:52:43;99886.78;;;21.71;51.51
46199;BME280;31928;52.104;10.030;2022-09-09T01:55:11;99882.41;;;21.70;51.08
46199;BME280;31928;52.104;10.030;2022-09-09T01:58:20;99881.09;;;21.85;50.91
46199;BME280;31928;52.104;10.030;2022-09-09T02:00:50;99886.78;;;21.71;51.01
46199;BME280;31928;52.104;10.030;2022-09-09T02:03:34;99878.59;;;21.71;50.82
46199;BME280;31928;52.104;10.030;2022-09-09T02:06:15;99881.47;;;21.61;50.91
46199;BME280;31928;52.104;10.030;2022-09-09T02:08:49;99881.16;;;21.44;51.29
46199;BME280;31928;52.104;10.030;2022-09-09T02:11:18;99881.88;;;21.31;51.62
46199;BME280;31928;52.104;10.030;2022-09-09T02:13:47;99898.97;;;21.18;51.85
46199;BME280;31928;52.104;10.030;2022-09-09T02:21:16;99881.97;;;20.84;52.51
46199;BME280;31928;52.104;10.030;2022-09-09T02:23:44;99885.91;;;20.73;52.71
46199;BME280;31928;52.104;10.030;2022-09-09T02:26:14;99896.59;;;20.65;52.83
46199;BME280;31928;52.104;10.030;2022-09-09T02:28:48;99885.50;;;20.56;53.07
46199;BME280;31928;52.104;10.030;2022-09-09T02:31:20;99880.94;;;20.52;52.89
46199;BME280;31928;52.104;10.030;2022-09-09T02:33:53;99873.13;;;20.46;53.33
46199;BME280;31928;52.104;10.030;2022-09-09T02:36:22;99868.38;;;20.33;53.48
46199;BME280;31928;52.104;10.030;2022-09-09T02:38:51;99867.06;;;20.25;53.71
46199;BME280;31928;52.104;10.030;2022-09-09T02:41:24;99875.53;;;20.24;54.24
46199;BME280;31928;52.104;10.030;2022-09-09T02:43:52;99865.31;;;20.11;54.04
46199;BME280;31928;52.104;10.030;2022-09-09T02:49:05;99869.59;;;20.17;53.77
46199;BME280;31928;52.104;10.030;2022-09-09T02:52:02;99861.13;;;20.18;53.39
46199;BME280;31928;52.104;10.030;2022-09-09T02:54:33;99866.53;;;19.95;54.58
46199;BME280;31928;52.104;10.030;2022-09-09T02:59:31;99900.34;;;19.84;54.87
46199;BME280;31928;52.104;10.030;2022-09-09T03:01:58;99875.91;;;19.79;55.07
46199;BME280;31928;52.104;10.030;2022-09-09T03:04:25;99870.19;;;19.76;55.46
46199;BME280;31928;52.104;10.030;2022-09-09T03:06:51;99873.19;;;20.12;52.71
46199;BME280;31928;52.104;10.030;2022-09-09T03:09:18;99879.19;;;19.76;55.30
46199;BME280;31928;52.104;10.030;2022-09-09T03:11:45;99879.22;;;19.71;55.58
46199;BME280;31928;52.104;10.030;2022-09-09T03:14:11;99880.88;;;19.67;55.51
46199;BME280;31928;52.104;10.030;2022-09-09T03:16:38;99890.41;;;20.03;53.44
46199;BME280;31928;52.104;10.030;2022-09-09T03:19:04;99883.31;;;19.69;55.51
46199;BME280;31928;52.104;10.030;2022-09-09T03:21:32;99896.16;;;19.63;55.56
46199;BME280;31928;52.104;10.030;2022-09-09T03:23:59;99888.00;;;19.96;53.26
46199;BME280;31928;52.104;10.030;2022-09-09T03:26:25;99879.25;;;19.66;55.52
46199;BME280;31928;52.104;10.030;2022-09-09T03:28:52;99879.03;;;19.96;53.33
46199;BME280;31928;52.104;10.030;2022-09-09T03:31:19;99881.72;;;19.63;55.92
46199;BME280;31928;52.104;10.030;2022-09-09T03:33:46;99873.88;;;19.56;55.90
46199;BME280;31928;52.104;10.030;2022-09-09T03:36:12;99873.38;;;19.54;56.34
46199;BME280;31928;52.104;10.030;2022-09-09T03:38:39;99880.44;;;19.50;56.10
46199;BME280;31928;52.104;10.030;2022-09-09T03:41:06;99878.84;;;19.49;56.56
46199;BME280;31928;52.104;10.030;2022-09-09T03:43:34;99874.19;;;19.50;56.31
46199;BME280;31928;52.104;10.030;2022-09-09T03:46:01;99877.47;;;19.52;56.47
46199;BME280;31928;52.104;10.030;2022-09-09T03:48:27;99879.91;;;19.53;56.26
46199;BME280;31928;52.104;10.030;2022-09-09T03:50:55;99874.47;;;19.53;56.33
46199;BME280;31928;52.104;10.030;2022-09-09T03:53:27;99875.53;;;19.57;56.42
46199;BME280;31928;52.104;10.030;2022-09-09T03:55:56;99871.13;;;19.61;56.21
46199;BME280;31928;52.104;10.030;2022-09-09T03:58:27;99867.31;;;19.62;56.39
46199;BME280;31928;52.104;10.030;2022-09-09T04:00:56;99865.38;;;19.68;56.39
46199;BME280;31928;52.104;10.030;2022-09-09T04:03:24;99871.06;;;19.71;56.45
46199;BME280;31928;52.104;10.030;2022-09-09T04:05:54;99874.84;;;19.75;56.00
46199;BME280;31928;52.104;10.030;2022-09-09T04:08:22;99878.63;;;19.79;56.14
46199;BME280;31928;52.104;10.030;2022-09-09T04:10:49;99876.66;;;19.85;55.99
46199;BME280;31928;52.104;10.030;2022-09-09T04:13:16;99882.34;;;19.88;56.12
46199;BME280;31928;52.104;10.030;2022-09-09T04:15:50;99878.00;;;19.92;56.02
46199;BME280;31928;52.104;10.030;2022-09-09T04:18:16;99882.56;;;19.96;55.95
46199;BME280;31928;52.104;10.030;2022-09-09T04:20:52;99884.97;;;20.03;55.65
46199;BME280;31928;52.104;10.030;2022-09-09T04:23:19;99883.91;;;19.99;55.49
46199;BME280;31928;52.104;10.030;2022-09-09T04:25:53;99887.13;;;20.06;55.63
46199;BME280;31928;52.104;10.030;2022-09-09T04:28:22;99884.75;;;19.99;55.50
46199;BME280;31928;52.104;10.030;2022-09-09T04:30:49;99890.19;;;19.99;55.37
46199;BME280;31928;52.104;10.030;2022-09-09T04:33:16;99896.44;;;20.00;55.87
46199;BME280;31928;52.104;10.030;2022-09-09T04:35:45;99896.69;;;20.03;55.86
46199;BME280;31928;52.104;10.030;2022-09-09T04:38:12;99894.25;;;20.02;55.88
46199;BME280;31928;52.104;10.030;2022-09-09T04:40:39;99895.53;;;20.38;54.02
46199;BME280;31928;52.104;10.030;2022-09-09T04:43:09;99894.19;;;20.07;55.66
46199;BME280;31928;52.104;10.030;2022-09-09T04:45:40;99896.94;;;20.07;55.83
46199;BME280;31928;52.104;10.030;2022-09-09T04:48:07;99898.53;;;20.08;55.86
46199;BME280;31928;52.104;10.030;2022-09-09T04:50:34;99900.44;;;20.07;55.99
46199;BME280;31928;52.104;10.030;2022-09-09T04:53:04;99902.84;;;20.14;55.92
46199;BME280;31928;52.104;10.030;2022-09-09T04:55:32;99902.59;;;20.10;56.23
46199;BME280;31928;52.104;10.030;2022-09-09T04:58:04;99903.31;;;20.21;55.84
46199;BME280;31928;52.104;10.030;2022-09-09T05:00:32;99913.41;;;20.20;55.80
46199;BME280;31928;52.104;10.030;2022-09-09T05:03:02;99917.41;;;20.28;55.86
46199;BME280;31928;52.104;10.030;2022-09-09T05:05:29;99899.16;;;20.28;56.04
46199;BME280;31928;52.104;10.030;2022-09-09T05:08:01;99910.75;;;20.39;55.92
46199;BME280;31928;52.104;10.030;2022-09-09T05:10:28;99912.09;;;20.41;55.99
46199;BME280;31928;52.104;10.030;2022-09-09T05:12:54;99909.03;;;20.48;55.56
46199;BME280;31928;52.104;10.030;2022-09-09T05:15:21;99911.97;;;20.56;55.50
46199;BME280;31928;52.104;10.030;2022-09-09T05:17:47;99906.16;;;20.62;55.40
46199;BME280;31928;52.104;10.030;2022-09-09T05:20:14;99907.44;;;20.70;55.29
46199;BME280;31928;52.104;10.030;2022-09-09T05:22:42;99908.72;;;20.77;54.98
46199;BME280;31928;52.104;10.030;2022-09-09T05:25:09;99906.66;;;21.16;53.85
46199;BME280;31928;52.104;10.030;2022-09-09T05:27:35;99904.16;;;20.96;54.38
46199;BME280;31928;52.104;10.030;2022-09-09T05:30:02;99913.22;;;21.33;53.62
46199;BME280;31928;52.104;10.030;2022-09-09T05:32:29;99907.22;;;21.13;54.07
46199;BME280;31928;52.104;10.030;2022-09-09T05:35:00;99909.38;;;21.16;53.97
46199;BME280;31928;52.104;10.030;2022-09-09T05:37:27;99914.47;;;21.22;53.68
46199;BME280;31928;52.104;10.030;2022-09-09T05:39:55;99917.13;;;21.27;53.60
46199;BME280;31928;52.104;10.030;2022-09-09T05:42:21;99923.31;;;21.33;53.78
46199;BME280;31928;52.104;10.030;2022-09-09T05:44:48;99921.16;;;21.72;53.21
46199;BME280;31928;52.104;10.030;2022-09-09T05:47:14;99926.34;;;21.50;53.27
46199;BME280;31928;52.104;10.030;2022-09-09T05:49:41;99923.88;;;21.53;53.33
46199;BME280;31928;52.104;10.030;2022-09-09T05:52:07;99923.06;;;21.89;52.94
46199;BME280;31928;52.104;10.030;2022-09-09T05:54:35;99916.88;;;21.66;52.69
46199;BME280;31928;52.104;10.030;2022-09-09T05:57:03;99925.94;;;21.61;52.86
46199;BME280;31928;52.104;10.030;2022-09-09T05:59:30;99919.16;;;21.59;52.66
46199;BME280;31928;52.104;10.030;2022-09-09T06:01:57;99927.94;;;21.56;52.69
46199;BME280;31928;52.104;10.030;2022-09-09T06:04:24;99932.34;;;21.52;52.35
46199;BME280;31928;52.104;10.030;2022-09-09T06:06:51;99931.28;;;21.48;53.03
46199;BME280;31928;52.104;10.030;2022-09-09T06:09:17;99937.94;;;21.42;52.65
46199;BME280;31928;52.104;10.030;2022-09-09T06:11:44;99935.81;;;21.75;52.04
46199;BME280;31928;52.104;10.030;2022-09-09T06:14:10;99938.00;;;21.37;53.54
46199;BME280;31928;52.104;10.030;2022-09-09T06:16:36;99936.19;;;21.69;52.07
46199;BME280;31928;52.104;10.030;2022-09-09T06:19:08;99943.50;;;21.32;53.23
46199;BME280;31928;52.104;10.030;2022-09-09T06:21:35;99940.09;;;21.63;52.19
46199;BME280;31928;52.104;10.030;2022-09-09T06:24:03;99937.81;;;21.28;53.32
46199;BME280;31928;52.104;10.030;2022-09-09T06:26:32;99939.22;;;21.26;54.01
46199;BME280;31928;52.104;10.030;2022-09-09T06:29:00;99935.16;;;21.23;54.05
46199;BME280;31928;52.104;10.030;2022-09-09T06:31:28;99935.16;;;21.23;53.85
46199;BME280;31928;52.104;10.030;2022-09-09T06:33:58;99927.50;;;21.25;53.97
46199;BME280;31928;52.104;10.030;2022-09-09T06:36:29;99921.69;;;21.32;53.62
46199;BME280;31928;52.104;10.030;2022-09-09T06:39:00;99928.78;;;21.33;53.88
46199;BME280;31928;52.104;10.030;2022-09-09T06:41:28;99920.53;;;21.38;53.82
46199;BME280;31928;52.104;10.030;2022-09-09T06:43:56;99928.66;;;21.43;53.22
46199;BME280;31928;52.104;10.030;2022-09-09T06:46:25;99920.38;;;21.48;53.41
46199;BME280;31928;52.104;10.030;2022-09-09T06:48:55;99922.25;;;21.52;53.29
46199;BME280;31928;52.104;10.030;2022-09-09T06:51:25;99927.94;;;21.56;52.69
46199;BME280;31928;52.104;10.030;2022-09-09T06:53:54;99921.66;;;21.55;52.88
46199;BME280;31928;52.104;10.030;2022-09-09T06:56:23;99930.38;;;21.57;53.21
46199;BME280;31928;52.104;10.030;2022-09-09T06:58:51;99923.06;;;21.53;52.86
46199;BME280;31928;52.104;10.030;2022-09-09T07:01:23;99928.50;;;21.53;52.97
46199;BME280;31928;52.104;10.030;2022-09-09T07:03:51;99937.78;;;21.52;53.25
46199;BME280;31928;52.104;10.030;2022-09-09T07:06:23;99933.41;;;21.56;53.00
46199;BME280;31928;52.104;10.030;2022-09-09T07:08:55;99936.69;;;21.53;53.18
46199;BME280;31928;52.104;10.030;2022-09-09T07:11:24;99934.53;;;21.50;53.45
46199;BME280;31928;52.104;10.030;2022-09-09T07:13:52;99931.28;;;21.48;53.28
46199;BME280;31928;52.104;10.030;2022-09-09T07:16:20;99924.00;;;21.43;53.26
46199;BME280;31928;52.104;10.030;2022-09-09T07:18:47;99936.53;;;21.44;53.14
46199;BME280;31928;52.104;10.030;2022-09-09T07:21:13;99927.34;;;21.77;52.18
46199;BME280;31928;52.104;10.030;2022-09-09T07:23:41;99941.38;;;21.47;53.42
46199;BME280;31928;52.104;10.030;2022-09-09T07:26:12;99941.75;;;21.41;53.62
46199;BME280;31928;52.104;10.030;2022-09-09T07:28:40;99928.97;;;21.36;53.44
46199;BME280;31928;52.104;10.030;2022-09-09T07:31:13;99941.75;;;21.41;53.39
46199;BME280;31928;52.104;10.030;2022-09-09T07:33:42;99948.97;;;21.32;53.11
46199;BME280;31928;52.104;10.030;2022-09-09T07:38:40;99938.66;;;21.29;53.32
46199;BME280;31928;52.104;10.030;2022-09-09T07:41:08;99942.72;;;21.31;53.25
46199;BME280;31928;52.104;10.030;2022-09-09T07:43:39;99941.88;;;21.31;53.96
46199;BME280;31928;52.104;10.030;2022-09-09T07:46:07;99937.53;;;21.30;54.01
46199;BME280;31928;52.104;10.030;2022-09-09T07:48:34;99948.38;;;21.35;53.91
46199;BME280;31928;52.104;10.030;2022-09-09T07:51:10;99951.50;;;21.47;53.57
46199;BME280;31928;52.104;10.030;2022-09-09T07:53:38;99960.38;;;21.75;52.65
46199;BME280;31928;52.104;10.030;2022-09-09T07:56:07;99953.06;;;21.53;53.15
46199;BME280;31928;52.104;10.030;2022-09-09T07:58:39;99949.53;;;21.52;53.56
46199;BME280;31928;52.104;10.030;2022-09-09T08:01:24;99953.59;;;21.55;53.37
46199;BME280;31928;52.104;10.030;2022-09-09T08:04:00;99948.94;;;21.55;53.07
46199;BME280;31928;52.104;10.030;2022-09-09T08:06:29;99950.34;;;21.53;53.53
46199;BME280;31928;52.104;10.030;2022-09-09T08:08:59;99954.16;;;21.52;53.28
46199;BME280;31928;52.104;10.030;2022-09-09T08:11:27;99952.56;;;21.51;53.46
46199;BME280;31928;52.104;10.030;2022-09-09T08:13:55;99955.00;;;21.52;53.73
46199;BME280;31928;52.104;10.030;2022-09-09T08:16:30;99961.78;;;21.55;53.14
46199;BME280;31928;52.104;10.030;2022-09-09T08:19:04;99946.50;;;21.54;53.57
46199;BME280;31928;52.104;10.030;2022-09-09T08:21:34;99962.28;;;21.57;53.70
46199;BME280;31928;52.104;10.030;2022-09-09T08:24:03;99957.59;;;21.62;54.37
46199;BME280;31928;52.104;10.030;2022-09-09T08:26:37;99946.75;;;21.75;53.75
46199;BME280;31928;52.104;10.030;2022-09-09T08:29:05;99940.09;;;21.81;53.63
46199;BME280;31928;52.104;10.030;2022-09-09T08:31:47;99937.66;;;21.98;53.80
46199;BME280;31928;52.104;10.030;2022-09-09T08:34:14;99933.22;;;22.02;53.42
46199;BME280;31928;52.104;10.030;2022-09-09T08:36:43;99937.13;;;22.15;53.31
46199;BME280;31928;52.104;10.030;2022-09-09T08:39:12;99932.81;;;22.27;52.98
46199;BME280;31928;52.104;10.030;2022-09-09T08:50:13;99948.84;;;22.92;52.12
46199;BME280;31928;52.104;10.030;2022-09-09T08:55:48;99959.00;;;23.18;50.76
46199;BME280;31928;52.104;10.030;2022-09-09T08:58:17;99953.94;;;23.25;50.03
46199;BME280;31928;52.104;10.030;2022-09-09T09:12:16;99946.75;;;23.64;49.77
46199;BME280;31928;52.104;10.030;2022-09-09T09:14:46;99960.50;;;23.51;47.71
46199;BME280;31928;52.104;10.030;2022-09-09T09:17:25;99963.91;;;23.57;48.16
46199;BME280;31928;52.104;10.030;2022-09-09T09:19:53;99958.13;;;23.58;48.19
46199;BME280;31928;52.104;10.030;2022-09-09T09:24:56;99957.09;;;23.81;48.94
46199;BME280;31928;52.104;10.030;2022-09-09T09:27:32;99963.16;;;23.91;47.59
46199;BME280;31928;52.104;10.030;2022-09-09T09:30:22;99968.41;;;24.01;47.83
46199;BME280;31928;52.104;10.030;2022-09-09T09:35:52;99955.25;;;24.33;46.65
46199;BME280;31928;52.104;10.030;2022-09-09T09:38:25;99952.97;;;24.49;47.73
46199;BME280;31928;52.104;10.030;2022-09-09T09:41:14;99953.38;;;24.56;45.88
46199;BME280;31928;52.104;10.030;2022-09-09T09:43:41;99969.66;;;24.61;45.93
46199;BME280;31928;52.104;10.030;2022-09-09T09:46:22;99965.84;;;24.70;46.27
46199;BME280;31928;52.104;10.030;2022-09-09T09:49:01;99973.09;;;24.66;46.00
46199;BME280;31928;52.104;10.030;2022-09-09T09:51:30;99962.88;;;24.58;45.40
46199;BME280;31928;52.104;10.030;2022-09-09T09:56:40;99941.56;;;24.55;46.21
46199;BME280;31928;52.104;10.030;2022-09-09T09:59:21;99951.63;;;24.68;46.42
46199;BME280;31928;52.104;10.030;2022-09-09T10:02:23;99929.88;;;24.72;46.10
46199;BME280;31928;52.104;10.030;2022-09-09T10:05:21;99938.78;;;24.77;45.60
46199;BME280;31928;52.104;10.030;2022-09-09T10:08:10;99933.28;;;24.77;46.14
46199;BME280;31928;52.104;10.030;2022-09-09T10:16:13;99937.47;;;24.75;45.27
46199;BME280;31928;52.104;10.030;2022-09-09T10:19:18;99938.31;;;24.83;45.51
46199;BME280;31928;52.104;10.030;2022-09-09T10:33:10;99946.72;;;24.57;47.07
46199;BME280;31928;52.104;10.030;2022-09-09T10:35:52;99944.44;;;24.50;46.29
46199;BME280;31928;52.104;10.030;2022-09-09T10:38:34;99953.38;;;24.56;46.64
46199;BME280;31928;52.104;10.030;2022-09-09T10:41:16;99947.78;;;24.69;46.76
46199;BME280;31928;52.104;10.030;2022-09-09T10:44:06;99932.22;;;24.86;46.91
46199;BME280;31928;52.104;10.030;2022-09-09T10:50:04;99924.09;;;25.12;46.51
46199;BME280;31928;52.104;10.030;2022-09-09T10:55:44;99927.09;;;25.41;45.22
46199;BME280;31928;52.104;10.030;2022-09-09T10:58:36;99905.78;;;25.54;45.50
46199;BME280;31928;52.104;10.030;2022-09-09T11:01:19;99910.16;;;25.55;44.13
46199;BME280;31928;52.104;10.030;2022-09-09T11:03:53;99927.75;;;25.54;43.88
46199;BME280;31928;52.104;10.030;2022-09-09T11:06:28;99920.66;;;25.53;43.88
46199;BME280;31928;52.104;10.030;2022-09-09T11:08:57;99912.56;;;25.48;44.09
46199;BME280;31928;52.104;10.030;2022-09-09T11:11:34;99902.06;;;25.50;44.50
46199;BME280;31928;52.104;10.030;2022-09-09T11:14:30;99907.25;;;25.60;44.43
46199;BME280;31928;52.104;10.030;2022-09-09T11:17:13;99905.78;;;25.54;44.46
46199;BME280;31928;52.104;10.030;2022-09-09T11:19:43;99905.47;;;25.47;42.96
46199;BME280;31928;52.104;10.030;2022-09-09T11:22:34;99911.13;;;25.59;44.10
46199;BME280;31928;52.104;10.030;2022-09-09T11:25:10;99915.78;;;25.50;43.51
46199;BME280;31928;52.104;10.030;2022-09-09T11:27:57;99918.72;;;25.45;42.22
46199;BME280;31928;52.104;10.030;2022-09-09T11:30:47;99917.41;;;25.51;43.29
46199;BME280;31928;52.104;10.030;2022-09-09T11:39:36;99918.88;;;25.49;42.92
46199;BME280;31928;52.104;10.030;2022-09-09T11:42:23;99927.41;;;25.47;43.15
46199;BME280;31928;52.104;10.030;2022-09-09T11:44:51;99932.25;;;25.34;41.24
46199;BME280;31928;52.104;10.030;2022-09-09T11:47:25;99926.13;;;25.37;42.57
46199;BME280;31928;52.104;10.030;2022-09-09T11:50:56;99915.16;;;25.37;42.78
46199;BME280;31928;52.104;10.030;2022-09-09T11:53:18;99908.03;;;25.36;42.83
46199;BME280;31928;52.104;10.030;2022-09-09T11:56:12;99909.97;;;25.43;43.46
46199;BME280;31928;52.104;10.030;2022-09-09T11:58:43;99927.41;;;25.31;42.29
46199;BME280;31928;52.104;10.030;2022-09-09T12:01:30;99921.25;;;25.34;43.12
46199;BME280;31928;52.104;10.030;2022-09-09T12:06:53;99920.31;;;25.46;43.94
46199;BME280;31928;52.104;10.030;2022-09-09T12:11:52;99920.97;;;25.43;43.80
46199;BME280;31928;52.104;10.030;2022-09-09T12:14:21;99916.44;;;25.47;44.68
46199;BME280;31928;52.104;10.030;2022-09-09T12:16:49;99914.66;;;25.51;44.41
46199;BME280;31928;52.104;10.030;2022-09-09T12:19:21;99920.97;;;25.60;44.89
46199;BME280;31928;52.104;10.030;2022-09-09T12:24:45;99917.44;;;25.68;43.44
46199;BME280;31928;52.104;10.030;2022-09-09T12:27:24;99915.31;;;25.57;43.15
46199;BME280;31928;52.104;10.030;2022-09-09T12:30:10;99913.56;;;25.69;44.48
46199;BME280;31928;52.104;10.030;2022-09-09T12:32:38;99912.91;;;25.55;43.96
46199;BME280;31928;52.104;10.030;2022-09-09T12:35:11;99917.75;;;25.58;44.24
46199;BME280;31928;52.104;10.030;2022-09-09T12:37:44;99911.28;;;25.54;44.16
46199;BME280;31928;52.104;10.030;2022-09-09T12:40:24;99920.31;;;25.63;45.20
46199;BME280;31928;52.104;10.030;2022-09-09T12:42:51;99910.16;;;25.55;44.56
46199;BME280;31928;52.104;10.030;2022-09-09T12:45:20;99914.19;;;25.58;44.74
46199;BME280;31928;52.104;10.030;2022-09-09T12:48:06;99921.19;;;25.72;45.00
46199;BME280;31928;52.104;10.030;2022-09-09T12:50:35;99906.16;;;25.95;44.98
46199;BME280;31928;52.104;10.030;2022-09-09T12:53:30;99916.19;;;25.74;44.35
46199;BME280;31928;52.104;10.030;2022-09-09T12:56:06;99932.78;;;25.61;44.28
46199;BME280;31928;52.104;10.030;2022-09-09T12:58:36;99928.75;;;25.58;44.02
46199;BME280;31928;52.104;10.030;2022-09-09T13:01:04;99933.88;;;25.51;43.61
46199;BME280;31928;52.104;10.030;2022-09-09T13:03:33;99929.69;;;25.45;44.14
46199;BME280;31928;52.104;10.030;2022-09-09T13:06:18;99934.72;;;25.52;44.33
46199;BME280;31928;52.104;10.030;2022-09-09T13:08:50;99930.00;;;25.36;44.88
46199;BME280;31928;52.104;10.030;2022-09-09T13:11:21;99921.25;;;25.34;44.72
46199;BME280;31928;52.104;10.030;2022-09-09T13:13:53;99933.03;;;25.26;43.65
46199;BME280;31928;52.104;10.030;2022-09-09T13:16:22;99940.09;;;25.18;43.11
46199;BME280;31928;52.104;10.030;2022-09-09T13:18:49;99934.47;;;25.15;44.85
46199;BME280;31928;52.104;10.030;2022-09-09T13:21:16;99933.97;;;25.13;45.04
46199;BME280;31928;52.104;10.030;2022-09-09T13:23:48;99933.81;;;25.18;45.53
46199;BME280;31928;52.104;10.030;2022-09-09T13:26:24;99925.44;;;25.23;44.83
46199;BME280;31928;52.104;10.030;2022-09-09T13:28:55;99902.38;;;25.24;44.25
46199;BME280;31928;52.104;10.030;2022-09-09T13:31:36;99901.22;;;25.25;44.49
46199;BME280;31928;52.104;10.030;2022-09-09T13:34:13;99906.41;;;25.35;44.25
46199;BME280;31928;52.104;10.030;2022-09-09T13:36:40;99909.31;;;25.30;43.69
46199;BME280;31928;52.104;10.030;2022-09-09T13:39:16;99908.34;;;25.42;43.59
46199;BME280;31928;52.104;10.030;2022-09-09T13:41:46;99908.22;;;25.39;43.04
46199;BME280;31928;52.104;10.030;2022-09-09T13:44:20;99901.59;;;25.48;43.68
46199;BME280;31928;52.104;10.030;2022-09-09T13:47:04;99901.91;;;25.55;43.85
46199;BME280;31928;52.104;10.030;2022-09-09T13:49:36;99905.13;;;25.49;43.66
46199;BME280;31928;52.104;10.030;2022-09-09T13:52:10;99899.66;;;25.57;44.70
46199;BME280;31928;52.104;10.030;2022-09-09T13:54:38;99899.81;;;25.52;44.60
46199;BME280;31928;52.104;10.030;2022-09-09T13:57:12;99895.94;;;25.53;44.29
46199;BME280;31928;52.104;10.030;2022-09-09T13:59:40;99891.44;;;25.57;44.81
46199;BME280;31928;52.104;10.030;2022-09-09T14:02:26;99886.25;;;25.64;45.44
46199;BME280;31928;52.104;10.030;2022-09-09T14:04:53;99892.13;;;25.71;45.13
46199;BME280;31928;52.104;10.030;2022-09-09T14:07:21;99880.31;;;25.79;43.36
46199;BME280;31928;52.104;10.030;2022-09-09T14:09:48;99887.25;;;25.85;42.48
46199;BME280;31928;52.104;10.030;2022-09-09T14:12:16;99889.38;;;25.88;41.78
46199;BME280;31928;52.104;10.030;2022-09-09T14:14:43;99887.41;;;25.89;42.82
46199;BME280;31928;52.104;10.030;2022-09-09T14:17:10;99885.00;;;25.87;42.14
46199;BME280;31928;52.104;10.030;2022-09-09T14:19:36;99880.63;;;25.86;42.11
46199;BME280;31928;52.104;10.030;2022-09-09T14:22:03;99870.28;;;25.83;41.63
46199;BME280;31928;52.104;10.030;2022-09-09T14:24:30;99874.50;;;25.81;39.52
46199;BME280;31928;52.104;10.030;2022-09-09T14:26:56;99868.84;;;25.77;38.76
46199;BME280;31928;52.104;10.030;2022-09-09T14:29:22;99873.69;;;25.72;38.16
46199;BME280;31928;52.104;10.030;2022-09-09T14:31:51;99873.50;;;25.68;37.67
46199;BME280;31928;52.104;10.030;2022-09-09T14:34:17;99873.66;;;25.63;37.41
46199;BME280;31928;52.104;10.030;2022-09-09T14:36:44;99876.56;;;25.58;37.27
46199;BME280;31928;52.104;10.030;2022-09-09T14:39:12;99876.72;;;25.53;37.63
46199;BME280;31928;52.104;10.030;2022-09-09T14:41:38;99878.00;;;25.47;37.39
46199;BME280;31928;52.104;10.030;2022-09-09T14:44:04;99869.91;;;25.42;38.01
46199;BME280;31928;52.104;10.030;2022-09-09T14:46:31;99873.97;;;25.37;39.09
46199;BME280;31928;52.104;10.030;2022-09-09T14:48:58;99871.22;;;25.37;38.08
46199;BME280;31928;52.104;10.030;2022-09-09T14:51:26;99859.94;;;25.38;38.96
46199;BME280;31928;52.104;10.030;2022-09-09T14:53:56;99854.28;;;25.43;38.51
46199;BME280;31928;52.104;10.030;2022-09-09T14:56:29;99850.88;;;25.54;39.76
46199;BME280;31928;52.104;10.030;2022-09-09T14:58:57;99846.50;;;25.62;38.09
46199;BME280;31928;52.104;10.030;2022-09-09T15:01:25;99844.78;;;25.74;38.22
46199;BME280;31928;52.104;10.030;2022-09-09T15:03:57;99842.66;;;25.88;39.10
46199;BME280;31928;52.104;10.030;2022-09-09T15:06:27;99860.25;;;26.04;38.36
46199;BME280;31928;52.104;10.030;2022-09-09T15:08:53;99850.88;;;26.13;38.63
46199;BME280;31928;52.104;10.030;2022-09-09T15:11:21;99849.69;;;26.23;37.33
46199;BME280;31928;52.104;10.030;2022-09-09T15:13:51;99853.25;;;26.32;35.87
46199;BME280;31928;52.104;10.030;2022-09-09T15:16:23;99861.16;;;26.42;36.53
46199;BME280;31928;52.104;10.030;2022-09-09T15:18:52;99855.16;;;26.48;37.37
46199;BME280;31928;52.104;10.030;2022-09-09T15:21:22;99851.41;;;26.53;37.58